Time;durP1;ratioP1;P1;durP2;ratioP2;P2;SDS_P1;SDS_P2;PMS_P1;PMS_P2;Temp;Humidity;BMP_temperature;BMP_pressure;BME280_temperature;BME280_humidity;BME280_pressure;Samples;Min_cycle;Max_cycle;Signal;HPM_P1;HPM_P2
2022/08/09 00:00:21;;;;;;;;;;;;;;;15.72;100.00;102916.09;5094915;28;19965;-34
2022/08/09 00:02:50;;;;;;;;;;;;;;;15.73;100.00;102898.06;5093620;28;19920;-31
2022/08/09 00:05:18;;;;;;;;;;;;;;;15.72;100.00;102902.00;5094659;28;19927;-35
2022/08/09 00:08:09;;;;;;;;;;;;;;;15.69;100.00;102894.13;5094333;28;19957;-36
2022/08/09 00:10:38;;;;;;;;;;;;;;;15.67;100.00;102902.88;5093910;28;19930;-39
2022/08/09 00:13:06;;;;;;;;;;;;;;;15.65;100.00;102895.81;5094301;28;19942;-31
2022/08/09 00:15:45;;;;;;;;;;;;;;;15.62;100.00;102907.66;5094452;28;19926;-34
2022/08/09 00:18:30;;;;;;;;;;;;;;;15.58;100.00;102901.75;5093931;28;19927;-31
2022/08/09 00:21:03;;;;;;;;;;;;;;;15.54;100.00;102897.78;5094427;28;19924;-30
2022/08/09 00:23:30;;;;;;;;;;;;;;;15.50;100.00;102899.47;5094009;28;19919;-31
2022/08/09 00:26:18;;;;;;;;;;;;;;;15.46;100.00;102904.81;5094196;28;19927;-35
2022/08/09 00:28:56;;;;;;;;;;;;;;;15.45;100.00;102899.47;5093381;28;19920;-33
2022/08/09 00:31:26;;;;;;;;;;;;;;;15.42;100.00;102900.88;5093537;28;19920;-31
2022/08/09 00:34:13;;;;;;;;;;;;;;;15.40;100.00;102896.66;5093806;28;19920;-38
2022/08/09 00:36:45;;;;;;;;;;;;;;;15.40;100.00;102894.69;5094125;28;19927;-31
2022/08/09 00:39:13;;;;;;;;;;;;;;;15.41;100.00;102901.16;5092674;28;19942;-31
2022/08/09 00:42:00;;;;;;;;;;;;;;;15.39;100.00;102901.44;5093911;28;19920;-31
2022/08/09 00:44:48;;;;;;;;;;;;;;;15.39;100.00;102893.00;5093688;28;20284;-31
2022/08/09 00:47:17;;;;;;;;;;;;;;;15.38;100.00;102901.75;5093121;28;19942;-34
2022/08/09 00:49:47;;;;;;;;;;;;;;;15.35;100.00;102900.34;5093297;28;19920;-35
2022/08/09 00:52:23;;;;;;;;;;;;;;;15.32;100.00;102902.88;5093055;28;19970;-31
2022/08/09 00:54:57;;;;;;;;;;;;;;;15.30;100.00;102905.97;5092492;28;19920;-31
2022/08/09 00:57:26;;;;;;;;;;;;;;;15.28;100.00;102904.53;5093526;28;19927;-38
2022/08/09 01:00:01;;;;;;;;;;;;;;;15.25;100.00;102889.06;5092476;28;20028;-32
2022/08/09 01:02:49;;;;;;;;;;;;;;;15.24;100.00;102884.56;5093629;28;19923;-31
2022/08/09 01:05:22;;;;;;;;;;;;;;;15.23;100.00;102891.31;5093279;28;19943;-32
2022/08/09 01:08:14;;;;;;;;;;;;;;;15.21;100.00;102890.75;5092647;28;20297;-37
2022/08/09 01:10:48;;;;;;;;;;;;;;;15.19;100.00;102895.81;5093249;28;19967;-31
2022/08/09 01:13:23;;;;;;;;;;;;;;;15.19;100.00;102890.19;5092696;28;19942;-33
2022/08/09 01:15:59;;;;;;;;;;;;;;;15.19;100.00;102892.19;5093058;28;19981;-42
2022/08/09 01:18:30;;;;;;;;;;;;;;;15.16;100.00;102888.81;5093181;28;19924;-32
2022/08/09 01:21:07;;;;;;;;;;;;;;;15.14;100.00;102884.59;5092330;28;19924;-31
2022/08/09 01:23:42;;;;;;;;;;;;;;;15.10;100.00;102892.72;5093272;28;20013;-36
2022/08/09 01:26:47;;;;;;;;;;;;;;;15.06;100.00;102893.56;5092800;28;19924;-36
2022/08/09 01:29:26;;;;;;;;;;;;;;;15.05;100.00;102891.88;5072128;28;19967;-39
2022/08/09 01:32:08;;;;;;;;;;;;;;;15.04;100.00;102893.00;5092753;28;20399;-36
2022/08/09 01:34:58;;;;;;;;;;;;;;;15.02;100.00;102892.44;5092075;28;19923;-31
2022/08/09 01:37:34;;;;;;;;;;;;;;;15.01;100.00;102893.56;5092174;28;20010;-32
2022/08/09 01:40:22;;;;;;;;;;;;;;;14.98;100.00;102892.19;5092308;28;19920;-30
2022/08/09 01:42:57;;;;;;;;;;;;;;;14.95;100.00;102886.25;5091864;28;19920;-30
2022/08/09 01:45:26;;;;;;;;;;;;;;;14.92;100.00;102884.00;5092656;28;19958;-32
2022/08/09 01:47:56;;;;;;;;;;;;;;;14.92;100.00;102886.81;5092832;28;19955;-35
2022/08/09 01:50:24;;;;;;;;;;;;;;;14.91;100.00;102883.16;5091997;28;19924;-30
2022/08/09 01:53:03;;;;;;;;;;;;;;;14.88;100.00;102885.69;5092229;28;19920;-38
2022/08/09 01:55:47;;;;;;;;;;;;;;;14.85;100.00;102894.66;5091932;28;20316;-32
2022/08/09 01:58:16;;;;;;;;;;;;;;;14.82;100.00;102884.81;5092482;28;19920;-37
2022/08/09 02:00:51;;;;;;;;;;;;;;;14.81;100.00;102881.16;5092650;28;19924;-33
2022/08/09 02:03:20;;;;;;;;;;;;;;;14.80;100.00;102896.34;5090414;28;20361;-41
2022/08/09 02:05:50;;;;;;;;;;;;;;;14.79;100.00;102902.22;5092612;28;19927;-35
2022/08/09 02:08:34;;;;;;;;;;;;;;;14.78;100.00;102897.75;5092365;28;19931;-39
2022/08/09 02:11:22;;;;;;;;;;;;;;;14.77;100.00;102904.50;5091597;28;19920;-33
2022/08/09 02:13:51;;;;;;;;;;;;;;;14.74;100.00;102903.09;5088869;28;20266;-30
2022/08/09 02:16:35;;;;;;;;;;;;;;;14.72;100.00;102905.31;5091570;28;19928;-31
2022/08/09 02:19:23;;;;;;;;;;;;;;;14.71;100.00;102914.03;5091887;28;19973;-31
2022/08/09 02:22:09;;;;;;;;;;;;;;;14.69;100.00;102902.22;5092200;28;19928;-34
2022/08/09 02:24:37;;;;;;;;;;;;;;;14.67;100.00;102905.31;5080519;28;19920;-33
2022/08/09 02:27:08;;;;;;;;;;;;;;;14.67;100.00;102908.13;5091789;28;19965;-33
2022/08/09 02:29:45;;;;;;;;;;;;;;;14.66;100.00;102906.44;5092113;28;19920;-39
2022/08/09 02:32:17;;;;;;;;;;;;;;;14.64;100.00;102908.66;5091293;28;19985;-33
2022/08/09 02:34:47;;;;;;;;;;;;;;;14.62;100.00;102907.25;5092158;28;20485;-32
2022/08/09 02:37:27;;;;;;;;;;;;;;;14.60;100.00;102913.16;5091776;28;20388;-31
2022/08/09 02:40:04;;;;;;;;;;;;;;;14.57;100.00;102910.91;5091996;28;19926;-30
2022/08/09 02:42:38;;;;;;;;;;;;;;;14.56;100.00;102906.41;5092178;28;20539;-31
2022/08/09 02:45:09;;;;;;;;;;;;;;;14.54;100.00;102913.44;5091440;28;20022;-31
2022/08/09 02:47:38;;;;;;;;;;;;;;;14.50;100.00;102918.75;5091678;28;19928;-37
2022/08/09 02:50:27;;;;;;;;;;;;;;;14.47;100.00;102911.72;5091919;28;20345;-38
2022/08/09 02:52:56;;;;;;;;;;;;;;;14.44;100.00;102905.78;5092863;28;19928;-31
2022/08/09 02:55:25;;;;;;;;;;;;;;;14.42;100.00;102902.41;5096082;28;19930;-32
2022/08/09 02:58:14;;;;;;;;;;;;;;;14.39;100.00;102911.34;5095795;28;19924;-34
2022/08/09 03:01:03;;;;;;;;;;;;;;;14.36;100.00;102907.16;5086620;28;19920;-31
2022/08/09 03:03:35;;;;;;;;;;;;;;;14.33;100.00;102904.91;5095643;28;19920;-32
2022/08/09 03:06:23;;;;;;;;;;;;;;;14.33;100.00;102909.66;5086974;28;19920;-31
2022/08/09 03:08:54;;;;;;;;;;;;;;;14.30;100.00;102910.22;5094843;28;19930;-31
2022/08/09 03:11:22;;;;;;;;;;;;;;;14.27;100.00;102914.41;5095108;28;19953;-30
2022/08/09 03:14:11;;;;;;;;;;;;;;;14.25;100.00;102915.78;5092760;28;19950;-30
2022/08/09 03:16:40;;;;;;;;;;;;;;;14.24;100.00;102919.72;5093622;28;20440;-35
2022/08/09 03:19:16;;;;;;;;;;;;;;;14.23;100.00;102918.03;5093248;28;19927;-30
2022/08/09 03:22:04;;;;;;;;;;;;;;;14.20;100.00;102902.56;5093796;28;19923;-34
2022/08/09 03:24:39;;;;;;;;;;;;;;;14.18;100.00;102910.44;5092792;28;19934;-36
2022/08/09 03:27:19;;;;;;;;;;;;;;;14.16;100.00;102911.84;5093019;28;19927;-31
2022/08/09 03:29:48;;;;;;;;;;;;;;;14.14;100.00;102914.91;5094765;28;19931;-30
2022/08/09 03:32:29;;;;;;;;;;;;;;;14.11;100.00;102916.31;5095542;28;20289;-31
2022/08/09 03:34:58;;;;;;;;;;;;;;;14.09;100.00;102910.13;5094461;28;20026;-32
2022/08/09 03:37:26;;;;;;;;;;;;;;;14.07;100.00;102920.75;5094486;28;19920;-36
2022/08/09 03:40:14;;;;;;;;;;;;;;;14.05;100.00;102919.34;5094835;28;19924;-29
2022/08/09 03:42:44;;;;;;;;;;;;;;;14.04;100.00;102920.47;5094628;28;19959;-29
2022/08/09 03:45:13;;;;;;;;;;;;;;;14.04;100.00;102926.91;5094643;28;20577;-36
2022/08/09 03:47:43;;;;;;;;;;;;;;;14.03;100.00;102927.19;5094957;28;19965;-37
2022/08/09 03:50:13;;;;;;;;;;;;;;;14.04;100.00;102934.50;5094642;28;19924;-30
2022/08/09 03:53:01;;;;;;;;;;;;;;;14.03;100.00;102935.63;5094824;28;19926;-33
2022/08/09 03:55:29;;;;;;;;;;;;;;;14.02;100.00;102939.53;5093899;28;19920;-31
2022/08/09 03:58:07;;;;;;;;;;;;;;;14.01;100.00;102937.84;5094675;28;19920;-31
2022/08/09 04:00:44;;;;;;;;;;;;;;;14.00;100.00;102937.00;5094472;28;19926;-30
2022/08/09 04:03:14;;;;;;;;;;;;;;;14.00;100.00;102934.19;5093498;28;19920;-31
2022/08/09 04:06:02;;;;;;;;;;;;;;;13.97;100.00;102931.94;5094161;28;19919;-32
2022/08/09 04:08:31;;;;;;;;;;;;;;;13.96;100.00;102924.66;5094490;28;19955;-35
2022/08/09 04:10:59;;;;;;;;;;;;;;;13.96;100.00;102929.41;5093141;28;19926;-32
2022/08/09 04:13:28;;;;;;;;;;;;;;;13.93;100.00;102921.53;5094640;28;20304;-31
2022/08/09 04:16:16;;;;;;;;;;;;;;;13.91;100.00;102927.41;5093564;28;19927;-31
2022/08/09 04:18:49;;;;;;;;;;;;;;;13.88;100.00;102927.09;5094361;28;19967;-37
2022/08/09 04:21:17;;;;;;;;;;;;;;;13.89;100.00;102932.44;5093994;28;20280;-34
2022/08/09 04:23:45;;;;;;;;;;;;;;;13.88;100.00;102936.38;5093558;28;19920;-33
2022/08/09 04:26:24;;;;;;;;;;;;;;;13.87;100.00;102940.28;5094135;28;20018;-34
2022/08/09 04:29:04;;;;;;;;;;;;;;;13.86;100.00;102932.13;5085153;28;20420;-30
2022/08/09 04:31:41;;;;;;;;;;;;;;;13.85;100.00;102934.09;5079965;28;19924;-31
2022/08/09 04:34:15;;;;;;;;;;;;;;;13.83;100.00;102930.72;5093100;28;19928;-31
2022/08/09 04:36:45;;;;;;;;;;;;;;;13.82;100.00;102928.19;5092955;28;19927;-31
2022/08/09 04:39:16;;;;;;;;;;;;;;;13.82;100.00;102934.63;5091967;28;19920;-32
2022/08/09 04:41:45;;;;;;;;;;;;;;;13.83;100.00;102932.69;5092394;28;19963;-30
2022/08/09 04:44:12;;;;;;;;;;;;;;;13.83;100.00;102929.88;5092131;28;20292;-31
2022/08/09 04:46:41;;;;;;;;;;;;;;;13.87;100.00;102937.50;5092579;28;19977;-30
2022/08/09 04:49:31;;;;;;;;;;;;;;;13.92;100.00;102940.34;5092944;28;19920;-30
2022/08/09 04:52:19;;;;;;;;;;;;;;;14.00;100.00;102941.75;5090050;28;20392;-30
2022/08/09 04:54:59;;;;;;;;;;;;;;;14.06;100.00;102951.91;5092729;28;19924;-31
2022/08/09 04:57:28;;;;;;;;;;;;;;;14.11;100.00;102954.75;5092293;28;20381;-29
2022/08/09 05:00:16;;;;;;;;;;;;;;;14.16;100.00;102952.00;5092148;28;19924;-30
2022/08/09 05:02:44;;;;;;;;;;;;;;;14.19;100.00;102959.03;5092221;28;20274;-31
2022/08/09 05:05:20;;;;;;;;;;;;;;;14.23;100.00;102960.16;5091736;28;19920;-33
2022/08/09 05:08:07;;;;;;;;;;;;;;;14.28;100.00;102954.56;5091984;28;19931;-31
2022/08/09 05:10:35;;;;;;;;;;;;;;;14.33;100.00;102958.25;5092235;28;20343;-30
2022/08/09 05:13:03;;;;;;;;;;;;;;;14.38;100.00;102965.88;5091271;28;20388;-30
2022/08/09 05:15:31;;;;;;;;;;;;;;;14.43;100.00;102958.31;5091814;28;19923;-31
2022/08/09 05:18:14;;;;;;;;;;;;;;;14.49;100.00;102962.00;5092207;28;19920;-31
2022/08/09 05:21:03;;;;;;;;;;;;;;;14.57;100.00;102960.66;5091022;28;19923;-30
2022/08/09 05:23:49;;;;;;;;;;;;;;;14.63;100.00;102959.53;5091689;28;20423;-33
2022/08/09 05:26:28;;;;;;;;;;;;;;;14.69;100.00;102967.69;5092468;28;19974;-32
2022/08/09 05:29:04;;;;;;;;;;;;;;;14.76;100.00;102965.50;5092882;28;19950;-31
2022/08/09 05:31:31;;;;;;;;;;;;;;;14.84;100.00;102972.53;5092996;28;19924;-37
2022/08/09 05:34:15;;;;;;;;;;;;;;;14.94;100.00;102980.16;5091922;28;19920;-36
2022/08/09 05:36:45;;;;;;;;;;;;;;;15.03;100.00;102979.31;5092846;28;19923;-33
2022/08/09 05:39:14;;;;;;;;;;;;;;;15.11;100.00;102975.13;5092999;28;19920;-34
2022/08/09 05:41:56;;;;;;;;;;;;;;;15.17;100.00;102982.47;5092287;28;19992;-31
2022/08/09 05:44:31;;;;;;;;;;;;;;;15.24;100.00;102983.00;5092588;28;19977;-31
2022/08/09 05:47:00;;;;;;;;;;;;;;;15.34;100.00;102980.22;5092804;28;19920;-31
2022/08/09 05:49:32;;;;;;;;;;;;;;;15.40;100.00;102976.28;5091577;28;19948;-31
2022/08/09 05:52:22;;;;;;;;;;;;;;;15.46;100.00;102986.41;5092706;28;19919;-31
2022/08/09 05:54:51;;;;;;;;;;;;;;;15.55;100.00;102983.91;5091613;28;19920;-31
2022/08/09 05:57:21;;;;;;;;;;;;;;;15.64;100.00;102990.69;5092737;28;19924;-31
2022/08/09 06:00:10;;;;;;;;;;;;;;;15.74;100.00;102995.47;5091828;28;20345;-31
2022/08/09 06:02:40;;;;;;;;;;;;;;;15.82;100.00;102994.88;5091647;28;19920;-31
2022/08/09 06:05:13;;;;;;;;;;;;;;;15.89;100.00;102989.81;5092082;28;20287;-31
2022/08/09 06:07:43;;;;;;;;;;;;;;;15.97;100.00;103005.31;5092113;28;19924;-32
2022/08/09 06:10:40;;;;;;;;;;;;;;;16.04;100.00;103006.69;5091117;28;19951;-31
2022/08/09 06:13:09;;;;;;;;;;;;;;;16.13;100.00;103013.44;5092110;28;20277;-31
2022/08/09 06:15:45;;;;;;;;;;;;;;;16.20;100.00;103011.16;5091043;28;19951;-31
2022/08/09 06:18:13;;;;;;;;;;;;;;;16.28;100.00;103011.72;5092037;28;19920;-31
2022/08/09 06:20:43;;;;;;;;;;;;;;;16.35;100.00;103017.91;5091668;28;19982;-31
2022/08/09 06:23:24;;;;;;;;;;;;;;;16.44;100.00;103011.38;5091492;28;19955;-32
2022/08/09 06:26:11;;;;;;;;;;;;;;;16.58;100.00;103006.00;5091709;28;20238;-33
2022/08/09 06:28:39;;;;;;;;;;;;;;;16.69;100.00;103006.81;5095349;28;19919;-30
2022/08/09 06:31:10;;;;;;;;;;;;;;;16.80;100.00;103009.31;5094894;28;19924;-31
2022/08/09 06:33:37;;;;;;;;;;;;;;;16.96;100.00;103007.28;5095957;28;20396;-30
2022/08/09 06:36:08;;;;;;;;;;;;;;;17.21;100.00;103004.28;5095820;28;19931;-35
2022/08/09 06:38:41;;;;;;;;;;;;;;;17.61;100.00;103016.41;5095493;28;20011;-37
2022/08/09 06:41:17;;;;;;;;;;;;;;;18.15;100.00;103012.59;5095651;28;19920;-35
2022/08/09 06:43:47;;;;;;;;;;;;;;;18.75;100.00;103013.91;5095122;28;19935;-33
2022/08/09 06:46:14;;;;;;;;;;;;;;;19.35;100.00;103014.19;5095374;28;19928;-38
2022/08/09 06:49:02;;;;;;;;;;;;;;;20.20;100.00;103021.53;5095782;28;19989;-38
2022/08/09 06:51:30;;;;;;;;;;;;;;;20.92;100.00;103025.50;5094561;28;19930;-38
2022/08/09 06:53:59;;;;;;;;;;;;;;;21.57;100.00;103015.81;5095417;28;19920;-32
2022/08/09 06:56:27;;;;;;;;;;;;;;;22.00;100.00;103016.13;5095352;28;20391;-40
2022/08/09 06:58:57;;;;;;;;;;;;;;;22.33;100.00;103017.50;5095108;28;19974;-32
2022/08/09 07:01:45;;;;;;;;;;;;;;;22.92;100.00;103015.22;5095233;28;19920;-32
2022/08/09 07:04:24;;;;;;;;;;;;;;;23.51;97.63;103017.66;5095507;28;20015;-38
2022/08/09 07:06:53;;;;;;;;;;;;;;;24.08;89.98;103014.59;5094348;28;19931;-31
2022/08/09 07:09:28;;;;;;;;;;;;;;;24.66;87.47;103019.59;5095594;28;19963;-38
2022/08/09 07:12:16;;;;;;;;;;;;;;;25.32;81.79;103025.63;5099728;28;19949;-33
2022/08/09 07:14:46;;;;;;;;;;;;;;;25.88;79.55;103023.31;5095313;28;20306;-39
2022/08/09 07:17:18;;;;;;;;;;;;;;;26.54;71.34;103023.25;5095287;28;19927;-31
2022/08/09 07:19:47;;;;;;;;;;;;;;;27.03;66.69;103026.97;5094538;28;20373;-35
2022/08/09 07:22:22;;;;;;;;;;;;;;;27.33;64.38;103028.38;5095085;28;19931;-41
2022/08/09 07:25:03;;;;;;;;;;;;;;;27.74;63.48;103030.06;5095366;28;19927;-34
2022/08/09 07:27:35;;;;;;;;;;;;;;;28.24;57.21;103031.50;5094020;28;19924;-35
2022/08/09 07:30:20;;;;;;;;;;;;;;;28.28;51.56;103029.56;5095353;28;20015;-34
2022/08/09 07:32:51;;;;;;;;;;;;;;;28.46;51.39;103028.00;5094086;28;19926;-34
2022/08/09 07:35:21;;;;;;;;;;;;;;;28.81;49.59;103038.78;5095063;28;19924;-40
2022/08/09 07:37:49;;;;;;;;;;;;;;;29.12;50.17;103041.63;5094411;28;19997;-41
2022/08/09 07:40:19;;;;;;;;;;;;;;;29.48;49.86;103042.47;5093130;28;19920;-35
2022/08/09 07:43:00;;;;;;;;;;;;;;;29.86;46.77;103035.88;5094300;28;20435;-35
2022/08/09 07:45:28;;;;;;;;;;;;;;;29.97;44.66;103036.13;5095011;28;19923;-32
2022/08/09 07:48:08;;;;;;;;;;;;;;;30.15;47.78;103031.56;5093222;28;20030;-35
2022/08/09 07:50:55;;;;;;;;;;;;;;;30.27;44.01;103031.38;5094813;28;19942;-36
2022/08/09 07:53:43;;;;;;;;;;;;;;;30.52;44.78;103023.19;5094141;28;20442;-37
2022/08/09 07:56:32;;;;;;;;;;;;;;;30.88;44.91;103033.31;5094491;28;20349;-42
2022/08/09 07:59:00;;;;;;;;;;;;;;;31.18;43.58;103028.44;5094028;28;19920;-39
2022/08/09 08:01:28;;;;;;;;;;;;;;;31.39;40.23;103027.91;5092598;28;19920;-36
2022/08/09 08:04:01;;;;;;;;;;;;;;;31.50;41.20;103030.97;5094239;28;19920;-38
2022/08/09 08:06:28;;;;;;;;;;;;;;;31.77;38.92;103035.50;5094457;28;19926;-37
2022/08/09 08:08:58;;;;;;;;;;;;;;;31.75;37.99;103029.28;5093144;28;19942;-34
2022/08/09 08:11:37;;;;;;;;;;;;;;;31.85;39.21;103034.34;5094399;28;20026;-39
2022/08/09 08:14:24;;;;;;;;;;;;;;;32.15;38.07;103036.34;5094003;28;19973;-34
2022/08/09 08:16:52;;;;;;;;;;;;;;;32.28;38.11;103031.97;5093387;28;20010;-36
2022/08/09 08:19:34;;;;;;;;;;;;;;;32.46;37.08;103032.97;5093690;28;19956;-40
2022/08/09 08:22:02;;;;;;;;;;;;;;;32.56;35.18;103033.47;5093816;28;19923;-37
2022/08/09 08:24:30;;;;;;;;;;;;;;;32.50;34.42;103033.84;5094194;28;19926;-37
2022/08/09 08:27:08;;;;;;;;;;;;;;;32.48;36.88;103029.69;5092736;28;20343;-38
2022/08/09 08:29:44;;;;;;;;;;;;;;;32.65;35.96;103039.75;5092823;28;20272;-36
2022/08/09 08:32:17;;;;;;;;;;;;;;;32.95;36.62;103037.56;5093805;28;20353;-37
2022/08/09 08:34:55;;;;;;;;;;;;;;;33.18;33.17;103035.22;5093573;28;19923;-42
2022/08/09 08:37:25;;;;;;;;;;;;;;;33.15;34.71;103024.47;5093050;28;20385;-37
2022/08/09 08:40:14;;;;;;;;;;;;;;;33.10;34.55;103032.69;5093157;28;19927;-37
2022/08/09 08:42:43;;;;;;;;;;;;;;;32.92;32.43;103029.69;5093775;28;19920;-43
2022/08/09 08:45:14;;;;;;;;;;;;;;;32.73;34.90;103029.91;5092826;28;20274;-39
2022/08/09 08:47:44;;;;;;;;;;;;;;;33.00;35.76;103031.38;5093314;28;20369;-40
2022/08/09 08:50:14;;;;;;;;;;;;;;;33.37;34.15;103042.84;5092235;28;19920;-43
2022/08/09 08:52:44;;;;;;;;;;;;;;;33.55;32.61;103040.03;5093306;28;19920;-41
2022/08/09 08:55:26;;;;;;;;;;;;;;;33.72;32.74;103045.06;5093106;28;19920;-38
2022/08/09 08:57:55;;;;;;;;;;;;;;;33.99;33.94;103047.66;5092848;28;19931;-35
2022/08/09 09:00:26;;;;;;;;;;;;;;;34.11;33.34;103042.34;5093092;28;20426;-40
2022/08/09 09:03:01;;;;;;;;;;;;;;;34.13;33.81;103042.75;5093332;28;19951;-37
2022/08/09 09:05:39;;;;;;;;;;;;;;;34.38;33.00;103044.88;5092515;28;19920;-38
2022/08/09 09:08:28;;;;;;;;;;;;;;;34.62;31.81;103046.97;5093780;28;19920;-40
2022/08/09 09:11:01;;;;;;;;;;;;;;;34.78;31.73;103049.50;5092961;28;19924;-37
2022/08/09 09:13:31;;;;;;;;;;;;;;;34.96;31.11;103061.94;5092232;28;19959;-40
2022/08/09 09:16:19;;;;;;;;;;;;;;;35.15;31.32;103041.19;5093340;28;20296;-42
2022/08/09 09:18:58;;;;;;;;;;;;;;;35.23;30.33;103048.63;5092799;28;19978;-40
2022/08/09 09:22:05;;;;;;;;;;;;;;;35.23;30.73;103053.59;5093020;28;19965;-38
2022/08/09 09:24:38;;;;;;;;;;;;;;;35.16;31.06;103048.66;5093863;28;19930;-38
2022/08/09 09:27:11;;;;;;;;;;;;;;;35.05;30.20;103053.63;5092072;28;20451;-36
2022/08/09 09:30:09;;;;;;;;;;;;;;;35.03;31.19;103053.22;5093268;28;20347;-36
2022/08/09 09:33:00;;;;;;;;;;;;;;;35.01;30.33;103058.59;5091787;28;19920;-40
2022/08/09 09:35:50;;;;;;;;;;;;;;;34.66;28.75;103061.50;5093248;28;19924;-38
2022/08/09 09:38:42;;;;;;;;;;;;;;;34.43;31.15;103053.19;5092795;28;19920;-36
2022/08/09 09:41:10;;;;;;;;;;;;;;;34.38;30.41;103060.22;5092220;28;19923;-38
2022/08/09 09:43:39;;;;;;;;;;;;;;;34.46;30.85;103061.06;5092165;28;19969;-37
2022/08/09 09:46:31;;;;;;;;;;;;;;;34.65;29.51;103057.75;5092086;28;19920;-37
2022/08/09 09:49:11;;;;;;;;;;;;;;;34.46;29.54;103049.47;5089857;28;19943;-38
2022/08/09 09:51:39;;;;;;;;;;;;;;;34.36;30.22;103059.00;5092247;28;19931;-42
2022/08/09 09:54:08;;;;;;;;;;;;;;;34.30;31.65;103046.13;5091443;28;19963;-41
2022/08/09 09:56:49;;;;;;;;;;;;;;;34.25;28.24;103043.59;5092104;28;20377;-39
2022/08/09 09:59:38;;;;;;;;;;;;;;;33.62;31.08;103047.91;5091069;28;20449;-39
2022/08/09 10:02:07;;;;;;;;;;;;;;;33.41;30.93;103042.81;5090629;28;19920;-37
2022/08/09 10:04:34;;;;;;;;;;;;;;;33.47;32.28;103050.72;5087750;28;19920;-41
2022/08/09 10:07:02;;;;;;;;;;;;;;;33.64;31.03;103042.53;5091925;28;20405;-39
2022/08/09 10:09:46;;;;;;;;;;;;;;;33.99;31.56;103047.66;5090843;28;20011;-42
2022/08/09 10:12:23;;;;;;;;;;;;;;;34.27;31.06;103053.53;5092224;28;20025;-37
2022/08/09 10:15:03;;;;;;;;;;;;;;;34.34;30.49;103050.69;5088403;28;19926;-38
2022/08/09 10:17:33;;;;;;;;;;;;;;;34.36;28.25;103045.31;5091945;28;19927;-39
2022/08/09 10:20:25;;;;;;;;;;;;;;;34.45;31.03;103053.59;5090468;28;19927;-40
2022/08/09 10:23:13;;;;;;;;;;;;;;;34.50;28.23;103051.13;5091062;28;19920;-39
2022/08/09 10:25:44;;;;;;;;;;;;;;;34.59;29.81;103056.50;5092725;28;19920;-39
2022/08/09 10:28:32;;;;;;;;;;;;;;;34.79;29.76;103051.97;5092171;28;19957;-35
2022/08/09 10:31:00;;;;;;;;;;;;;;;35.00;30.02;103051.16;5091505;28;20238;-38
2022/08/09 10:33:50;;;;;;;;;;;;;;;35.14;29.20;103059.03;5091723;28;19950;-39
2022/08/09 10:36:37;;;;;;;;;;;;;;;35.21;28.90;103050.28;5091584;28;19920;-40
2022/08/09 10:39:05;;;;;;;;;;;;;;;35.13;29.57;103049.47;5092129;28;19935;-42
2022/08/09 10:41:44;;;;;;;;;;;;;;;35.03;30.33;103056.13;5092299;28;20284;-37
2022/08/09 10:44:16;;;;;;;;;;;;;;;34.94;29.50;103049.94;5090960;28;20458;-39
2022/08/09 10:46:54;;;;;;;;;;;;;;;34.72;29.29;103046.16;5092064;28;19920;-40
2022/08/09 10:49:36;;;;;;;;;;;;;;;34.64;29.81;103043.66;5091738;28;20411;-39
2022/08/09 10:52:36;;;;;;;;;;;;;;;34.58;29.88;103039.50;5092223;28;20088;-35
2022/08/09 10:55:19;;;;;;;;;;;;;;;34.62;30.22;103040.34;5091715;28;20373;-38
2022/08/09 10:57:46;;;;;;;;;;;;;;;34.65;31.11;103027.94;5091273;28;20410;-38
2022/08/09 11:00:35;;;;;;;;;;;;;;;34.71;29.89;103030.00;5091818;28;19920;-42
2022/08/09 11:03:03;;;;;;;;;;;;;;;34.43;30.29;103027.91;5091872;28;19924;-36
2022/08/09 11:06:15;;;;;;;;;;;;;;;33.93;29.92;103023.25;5090805;28;20384;-36
2022/08/09 11:08:44;;;;;;;;;;;;;;;33.93;31.64;103029.88;5081759;28;19935;-40
2022/08/09 11:11:14;;;;;;;;;;;;;;;34.13;30.00;103025.38;5090831;28;19923;-36
2022/08/09 11:13:42;;;;;;;;;;;;;;;34.29;29.01;103027.91;5093325;28;19920;-37
2022/08/09 11:16:33;;;;;;;;;;;;;;;34.34;29.22;103030.41;5095162;28;19930;-39
2022/08/09 11:19:04;;;;;;;;;;;;;;;34.40;29.52;103034.53;5095148;28;19924;-41
2022/08/09 11:21:52;;;;;;;;;;;;;;;34.19;28.91;103028.66;5095247;28;19927;-39
2022/08/09 11:25:00;;;;;;;;;;;;;;;33.82;29.60;103031.88;5095747;28;20037;-41
2022/08/09 11:27:30;;;;;;;;;;;;;;;33.73;31.00;103034.31;5075562;28;19924;-36
2022/08/09 11:30:30;;;;;;;;;;;;;;;33.95;29.37;103032.34;5095145;28;19919;-39
2022/08/09 11:33:03;;;;;;;;;;;;;;;34.10;29.56;103026.19;5084416;28;19928;-35
2022/08/09 11:35:33;;;;;;;;;;;;;;;34.22;29.04;103031.56;5094782;28;20292;-37
2022/08/09 11:38:17;;;;;;;;;;;;;;;33.98;27.86;103025.72;5085418;28;20015;-41
2022/08/09 11:40:45;;;;;;;;;;;;;;;33.63;28.90;103024.31;5093798;28;19927;-37
2022/08/09 11:43:16;;;;;;;;;;;;;;;33.35;29.02;103025.03;5094602;28;20006;-41
2022/08/09 11:45:53;;;;;;;;;;;;;;;33.27;29.91;103023.31;5094485;28;19942;-38
2022/08/09 11:48:26;;;;;;;;;;;;;;;33.37;30.73;103018.84;5094234;28;20031;-41
2022/08/09 11:51:02;;;;;;;;;;;;;;;33.35;28.92;103019.25;5094491;28;19928;-36
2022/08/09 11:54:09;;;;;;;;;;;;;;;33.23;30.37;103016.66;5084575;28;19934;-36
2022/08/09 11:56:42;;;;;;;;;;;;;;;33.27;29.20;103010.91;5094275;28;20469;-38
2022/08/09 11:59:25;;;;;;;;;;;;;;;33.24;28.48;103015.41;5094750;28;19943;-36
2022/08/09 12:02:00;;;;;;;;;;;;;;;33.02;28.20;103013.63;5093436;28;20385;-38
2022/08/09 12:04:50;;;;;;;;;;;;;;;32.80;29.08;103009.72;5094617;28;19973;-38
2022/08/09 12:07:27;;;;;;;;;;;;;;;32.81;28.50;103011.41;5093568;28;19977;-34
2022/08/09 12:10:08;;;;;;;;;;;;;;;32.83;28.79;103012.66;5094164;28;19920;-35
2022/08/09 12:12:57;;;;;;;;;;;;;;;32.74;29.61;103000.63;5093905;28;19973;-40
2022/08/09 12:15:25;;;;;;;;;;;;;;;32.43;31.21;103004.03;5093406;28;20060;-35
2022/08/09 12:18:16;;;;;;;;;;;;;;;32.30;30.98;102997.72;5093998;28;19985;-34
2022/08/09 12:20:52;;;;;;;;;;;;;;;32.37;30.83;102996.97;5083374;28;19927;-36
2022/08/09 12:23:20;;;;;;;;;;;;;;;32.34;31.73;102998.59;5092753;28;19925;-39
2022/08/09 12:26:07;;;;;;;;;;;;;;;32.53;32.31;102994.63;5073195;28;19920;-36
2022/08/09 12:28:38;;;;;;;;;;;;;;;32.83;32.35;102997.38;5089419;28;19931;-38
2022/08/09 12:31:27;;;;;;;;;;;;;;;33.10;30.89;102995.91;5073742;28;19926;-36
2022/08/09 12:34:14;;;;;;;;;;;;;;;33.20;31.16;103000.91;5093942;28;19924;-37
2022/08/09 12:36:52;;;;;;;;;;;;;;;33.06;29.99;102997.94;5093472;28;20411;-35
2022/08/09 12:39:39;;;;;;;;;;;;;;;32.55;30.37;102983.50;5093731;28;19931;-39
2022/08/09 12:42:07;;;;;;;;;;;;;;;32.42;30.73;102988.75;5093590;28;19920;-42
2022/08/09 12:44:38;;;;;;;;;;;;;;;32.37;33.08;102980.47;5092587;28;20019;-36
2022/08/09 12:47:09;;;;;;;;;;;;;;;32.59;33.36;102983.50;5093820;28;19920;-32
2022/08/09 12:49:39;;;;;;;;;;;;;;;32.81;32.75;102980.41;5092220;28;20378;-40
2022/08/09 12:52:17;;;;;;;;;;;;;;;32.96;32.27;102978.47;5092986;28;19927;-39
2022/08/09 12:54:49;;;;;;;;;;;;;;;32.97;31.12;102979.31;5091477;28;19924;-31
2022/08/09 12:57:41;;;;;;;;;;;;;;;33.08;31.56;102975.22;5091610;28;19931;-42
2022/08/09 13:00:16;;;;;;;;;;;;;;;33.18;31.99;102974.44;5092352;28;19981;-30
2022/08/09 13:02:52;;;;;;;;;;;;;;;33.29;32.35;102973.72;5092671;28;19923;-30
2022/08/09 13:05:21;;;;;;;;;;;;;;;33.18;31.11;102974.44;5091830;28;20446;-33
2022/08/09 13:08:06;;;;;;;;;;;;;;;32.66;31.29;102981.50;5092641;28;20356;-37
2022/08/09 13:10:47;;;;;;;;;;;;;;;32.48;33.32;102989.22;5090662;28;19977;-30
2022/08/09 13:13:29;;;;;;;;;;;;;;;32.50;33.30;102978.09;5092471;28;19974;-39
2022/08/09 13:16:18;;;;;;;;;;;;;;;32.61;33.27;102978.97;5090837;28;20025;-31
2022/08/09 13:18:47;;;;;;;;;;;;;;;32.76;33.45;102977.09;5091340;28;19928;-33